sensor_id;sensor_type;location;lat;lon;timestamp;temperature;humidity
1391;DHT22;690;51.454;7.194;2023-03-01T00:01:28;1.90;99.90
1391;DHT22;690;51.454;7.194;2023-03-01T00:03:56;1.90;99.90
1391;DHT22;690;51.454;7.194;2023-03-01T00:06:25;1.80;99.90
1391;DHT22;690;51.454;7.194;2023-03-01T00:08:52;1.80;99.90
1391;DHT22;690;51.454;7.194;2023-03-01T00:11:21;1.80;99.90
1391;DHT22;690;51.454;7.194;2023-03-01T00:13:50;1.80;99.90
1391;DHT22;690;51.454;7.194;2023-03-01T00:16:20;1.80;99.90
1391;DHT22;690;51.454;7.194;2023-03-01T00:18:47;1.80;99.90
1391;DHT22;690;51.454;7.194;2023-03-01T00:21:14;1.70;99.90
1391;DHT22;690;51.454;7.194;2023-03-01T00:23:42;1.70;99.90
1391;DHT22;690;51.454;7.194;2023-03-01T00:26:11;1.70;99.90
1391;DHT22;690;51.454;7.194;2023-03-01T00:28:39;1.70;99.90
1391;DHT22;690;51.454;7.194;2023-03-01T00:31:08;1.80;99.90
1391;DHT22;690;51.454;7.194;2023-03-01T00:33:36;1.70;99.90
1391;DHT22;690;51.454;7.194;2023-03-01T00:36:03;1.80;99.90
1391;DHT22;690;51.454;7.194;2023-03-01T00:38:33;1.70;99.90
1391;DHT22;690;51.454;7.194;2023-03-01T00:41:04;1.70;99.90
1391;DHT22;690;51.454;7.194;2023-03-01T00:43:31;1.70;99.90
1391;DHT22;690;51.454;7.194;2023-03-01T00:46:03;1.70;99.90
1391;DHT22;690;51.454;7.194;2023-03-01T00:48:31;1.70;99.90
1391;DHT22;690;51.454;7.194;2023-03-01T00:51:05;1.60;99.90
1391;DHT22;690;51.454;7.194;2023-03-01T00:53:32;1.70;99.90
1391;DHT22;690;51.454;7.194;2023-03-01T00:55:59;1.60;99.90
1391;DHT22;690;51.454;7.194;2023-03-01T00:58:27;1.60;99.90
1391;DHT22;690;51.454;7.194;2023-03-01T01:00:54;1.60;99.90
1391;DHT22;690;51.454;7.194;2023-03-01T01:03:21;1.60;99.90
1391;DHT22;690;51.454;7.194;2023-03-01T01:05:50;1.50;99.90
1391;DHT22;690;51.454;7.194;2023-03-01T01:08:17;1.50;99.90
1391;DHT22;690;51.454;7.194;2023-03-01T01:10:43;1.50;99.90
1391;DHT22;690;51.454;7.194;2023-03-01T01:13:11;1.50;99.90
1391;DHT22;690;51.454;7.194;2023-03-01T01:15:39;1.40;99.90
1391;DHT22;690;51.454;7.194;2023-03-01T01:18:07;1.40;99.90
1391;DHT22;690;51.454;7.194;2023-03-01T01:20:35;1.40;99.90
1391;DHT22;690;51.454;7.194;2023-03-01T01:23:02;1.40;99.90
1391;DHT22;690;51.454;7.194;2023-03-01T01:25:29;1.40;99.90
1391;DHT22;690;51.454;7.194;2023-03-01T01:27:56;1.40;99.90
1391;DHT22;690;51.454;7.194;2023-03-01T01:30:22;1.30;99.90
1391;DHT22;690;51.454;7.194;2023-03-01T01:32:51;1.30;99.90
1391;DHT22;690;51.454;7.194;2023-03-01T01:35:17;1.30;99.90
1391;DHT22;690;51.454;7.194;2023-03-01T01:37:44;1.30;99.90
1391;DHT22;690;51.454;7.194;2023-03-01T01:40:12;1.30;99.90
1391;DHT22;690;51.454;7.194;2023-03-01T01:42:39;1.20;99.90
1391;DHT22;690;51.454;7.194;2023-03-01T01:45:27;1.20;99.90
1391;DHT22;690;51.454;7.194;2023-03-01T01:47:58;1.20;99.90
1391;DHT22;690;51.454;7.194;2023-03-01T01:50:26;1.20;99.90
1391;DHT22;690;51.454;7.194;2023-03-01T01:52:59;1.20;99.90
1391;DHT22;690;51.454;7.194;2023-03-01T01:55:27;1.10;99.90
1391;DHT22;690;51.454;7.194;2023-03-01T01:57:56;1.10;99.90
1391;DHT22;690;51.454;7.194;2023-03-01T02:00:26;1.10;99.90
1391;DHT22;690;51.454;7.194;2023-03-01T02:02:57;1.10;99.90
1391;DHT22;690;51.454;7.194;2023-03-01T02:05:33;1.00;99.90
1391;DHT22;690;51.454;7.194;2023-03-01T02:08:02;1.00;99.90
1391;DHT22;690;51.454;7.194;2023-03-01T02:10:29;1.00;99.90
1391;DHT22;690;51.454;7.194;2023-03-01T02:12:58;1.00;99.90
1391;DHT22;690;51.454;7.194;2023-03-01T02:15:26;1.00;99.90
1391;DHT22;690;51.454;7.194;2023-03-01T02:17:55;0.90;99.90
1391;DHT22;690;51.454;7.194;2023-03-01T02:20:27;0.90;99.90
1391;DHT22;690;51.454;7.194;2023-03-01T02:22:56;1.00;99.90
1391;DHT22;690;51.454;7.194;2023-03-01T02:25:32;1.00;99.90
1391;DHT22;690;51.454;7.194;2023-03-01T02:28:07;1.00;99.90
1391;DHT22;690;51.454;7.194;2023-03-01T02:30:37;1.00;99.90
1391;DHT22;690;51.454;7.194;2023-03-01T02:33:25;0.90;99.90
1391;DHT22;690;51.454;7.194;2023-03-01T02:35:52;0.90;99.90
1391;DHT22;690;51.454;7.194;2023-03-01T02:38:21;0.90;99.90
1391;DHT22;690;51.454;7.194;2023-03-01T02:40:50;0.90;99.90
1391;DHT22;690;51.454;7.194;2023-03-01T02:43:22;0.90;99.90
1391;DHT22;690;51.454;7.194;2023-03-01T02:45:57;0.90;99.90
1391;DHT22;690;51.454;7.194;2023-03-01T02:48:24;0.80;99.90
1391;DHT22;690;51.454;7.194;2023-03-01T02:51:07;0.80;99.90
1391;DHT22;690;51.454;7.194;2023-03-01T02:53:45;0.80;99.90
1391;DHT22;690;51.454;7.194;2023-03-01T02:56:14;0.80;99.90
1391;DHT22;690;51.454;7.194;2023-03-01T02:58:42;0.80;99.90
1391;DHT22;690;51.454;7.194;2023-03-01T03:01:14;0.80;99.90
1391;DHT22;690;51.454;7.194;2023-03-01T03:03:42;0.80;99.90
1391;DHT22;690;51.454;7.194;2023-03-01T03:06:09;0.70;99.90
1391;DHT22;690;51.454;7.194;2023-03-01T03:08:36;0.70;99.90
1391;DHT22;690;51.454;7.194;2023-03-01T03:11:03;0.70;99.90
1391;DHT22;690;51.454;7.194;2023-03-01T03:13:30;0.60;99.90
1391;DHT22;690;51.454;7.194;2023-03-01T03:15:58;0.60;99.90
1391;DHT22;690;51.454;7.194;2023-03-01T03:18:26;0.60;99.90
1391;DHT22;690;51.454;7.194;2023-03-01T03:20:53;0.60;99.90
1391;DHT22;690;51.454;7.194;2023-03-01T03:23:21;0.60;99.90
1391;DHT22;690;51.454;7.194;2023-03-01T03:25:49;0.60;99.90
1391;DHT22;690;51.454;7.194;2023-03-01T03:28:16;0.60;99.90
1391;DHT22;690;51.454;7.194;2023-03-01T03:30:43;0.60;99.90
1391;DHT22;690;51.454;7.194;2023-03-01T03:33:11;0.50;99.90
1391;DHT22;690;51.454;7.194;2023-03-01T03:35:41;0.50;99.90
1391;DHT22;690;51.454;7.194;2023-03-01T03:38:12;0.60;99.90
1391;DHT22;690;51.454;7.194;2023-03-01T03:40:44;0.60;99.90
1391;DHT22;690;51.454;7.194;2023-03-01T03:43:14;0.50;99.90
1391;DHT22;690;51.454;7.194;2023-03-01T03:45:43;0.50;99.90
1391;DHT22;690;51.454;7.194;2023-03-01T03:48:10;0.50;99.90
1391;DHT22;690;51.454;7.194;2023-03-01T03:50:39;0.50;99.90
1391;DHT22;690;51.454;7.194;2023-03-01T03:53:08;0.50;99.90
1391;DHT22;690;51.454;7.194;2023-03-01T03:55:36;0.50;99.90
1391;DHT22;690;51.454;7.194;2023-03-01T03:58:05;0.40;99.90
1391;DHT22;690;51.454;7.194;2023-03-01T04:00:34;0.40;99.90
1391;DHT22;690;51.454;7.194;2023-03-01T04:03:01;0.40;99.90
1391;DHT22;690;51.454;7.194;2023-03-01T04:05:29;0.40;99.90
1391;DHT22;690;51.454;7.194;2023-03-01T04:07:58;0.40;99.90
1391;DHT22;690;51.454;7.194;2023-03-01T04:10:28;0.40;99.90
1391;DHT22;690;51.454;7.194;2023-03-01T04:12:56;0.40;99.90
1391;DHT22;690;51.454;7.194;2023-03-01T04:15:24;0.40;99.90
1391;DHT22;690;51.454;7.194;2023-03-01T04:17:52;0.40;99.90
1391;DHT22;690;51.454;7.194;2023-03-01T04:20:20;0.40;99.90
1391;DHT22;690;51.454;7.194;2023-03-01T04:22:50;0.30;99.90
1391;DHT22;690;51.454;7.194;2023-03-01T04:25:19;0.30;99.90
1391;DHT22;690;51.454;7.194;2023-03-01T04:27:45;0.30;99.90
1391;DHT22;690;51.454;7.194;2023-03-01T04:30:13;0.30;99.90
1391;DHT22;690;51.454;7.194;2023-03-01T04:32:40;0.30;99.90
1391;DHT22;690;51.454;7.194;2023-03-01T04:35:07;0.30;99.90
1391;DHT22;690;51.454;7.194;2023-03-01T04:37:34;0.20;99.90
1391;DHT22;690;51.454;7.194;2023-03-01T04:40:01;0.20;99.90
1391;DHT22;690;51.454;7.194;2023-03-01T04:42:40;0.20;99.90
1391;DHT22;690;51.454;7.194;2023-03-01T04:45:08;0.20;99.90
1391;DHT22;690;51.454;7.194;2023-03-01T04:47:39;0.20;99.90
1391;DHT22;690;51.454;7.194;2023-03-01T04:50:08;0.20;99.90
1391;DHT22;690;51.454;7.194;2023-03-01T04:52:35;0.10;99.90
1391;DHT22;690;51.454;7.194;2023-03-01T04:55:02;0.10;99.90
1391;DHT22;690;51.454;7.194;2023-03-01T04:57:30;0.10;99.90
1391;DHT22;690;51.454;7.194;2023-03-01T04:59:58;0.10;99.90
1391;DHT22;690;51.454;7.194;2023-03-01T05:02:25;0.10;99.90
1391;DHT22;690;51.454;7.194;2023-03-01T05:04:52;0.10;99.90
1391;DHT22;690;51.454;7.194;2023-03-01T05:07:23;0.10;99.90
1391;DHT22;690;51.454;7.194;2023-03-01T05:09:50;0.10;99.90
1391;DHT22;690;51.454;7.194;2023-03-01T05:12:17;0.00;99.90
1391;DHT22;690;51.454;7.194;2023-03-01T05:14:44;0.00;99.90
1391;DHT22;690;51.454;7.194;2023-03-01T05:17:12;0.10;99.90
1391;DHT22;690;51.454;7.194;2023-03-01T05:19:38;0.00;99.90
1391;DHT22;690;51.454;7.194;2023-03-01T05:22:08;0.00;99.90
1391;DHT22;690;51.454;7.194;2023-03-01T05:24:35;0.00;99.90
1391;DHT22;690;51.454;7.194;2023-03-01T05:27:04;0.00;99.90
1391;DHT22;690;51.454;7.194;2023-03-01T05:29:32;0.00;99.90
1391;DHT22;690;51.454;7.194;2023-03-01T05:32:01;0.00;99.90
1391;DHT22;690;51.454;7.194;2023-03-01T05:34:31;0.00;99.90
1391;DHT22;690;51.454;7.194;2023-03-01T05:36:59;0.00;99.90
1391;DHT22;690;51.454;7.194;2023-03-01T05:39:27;0.00;99.90
1391;DHT22;690;51.454;7.194;2023-03-01T05:41:55;0.00;99.90
1391;DHT22;690;51.454;7.194;2023-03-01T05:44:23;0.00;99.90
1391;DHT22;690;51.454;7.194;2023-03-01T05:46:50;0.00;99.90
1391;DHT22;690;51.454;7.194;2023-03-01T05:49:17;0.00;99.90
1391;DHT22;690;51.454;7.194;2023-03-01T05:51:48;-0.10;99.90
1391;DHT22;690;51.454;7.194;2023-03-01T05:54:15;-0.10;99.90
1391;DHT22;690;51.454;7.194;2023-03-01T05:56:43;-0.10;99.90
1391;DHT22;690;51.454;7.194;2023-03-01T05:59:11;-0.10;99.90
1391;DHT22;690;51.454;7.194;2023-03-01T06:01:39;-0.10;99.90
1391;DHT22;690;51.454;7.194;2023-03-01T06:04:06;-0.10;99.90
1391;DHT22;690;51.454;7.194;2023-03-01T06:06:34;-0.10;99.90
1391;DHT22;690;51.454;7.194;2023-03-01T06:09:04;-0.20;99.90
1391;DHT22;690;51.454;7.194;2023-03-01T06:11:33;-0.20;99.90
1391;DHT22;690;51.454;7.194;2023-03-01T06:14:00;-0.20;99.90
1391;DHT22;690;51.454;7.194;2023-03-01T06:16:27;-0.30;99.90
1391;DHT22;690;51.454;7.194;2023-03-01T06:18:54;-0.30;99.90
1391;DHT22;690;51.454;7.194;2023-03-01T06:21:21;-0.30;99.90
1391;DHT22;690;51.454;7.194;2023-03-01T06:23:47;-0.30;99.90
1391;DHT22;690;51.454;7.194;2023-03-01T06:26:16;-0.30;99.90
1391;DHT22;690;51.454;7.194;2023-03-01T06:28:43;-0.30;99.90
1391;DHT22;690;51.454;7.194;2023-03-01T06:31:11;-0.30;99.90
1391;DHT22;690;51.454;7.194;2023-03-01T06:33:38;-0.30;99.90
1391;DHT22;690;51.454;7.194;2023-03-01T06:36:06;-0.20;99.90
1391;DHT22;690;51.454;7.194;2023-03-01T06:38:33;-0.20;99.90
1391;DHT22;690;51.454;7.194;2023-03-01T06:41:00;-0.20;99.90
1391;DHT22;690;51.454;7.194;2023-03-01T06:43:28;-0.20;99.90
1391;DHT22;690;51.454;7.194;2023-03-01T06:45:55;-0.20;99.90
1391;DHT22;690;51.454;7.194;2023-03-01T06:48:22;-0.20;99.90
1391;DHT22;690;51.454;7.194;2023-03-01T06:50:49;-0.10;99.90
1391;DHT22;690;51.454;7.194;2023-03-01T06:53:16;-0.10;99.90
1391;DHT22;690;51.454;7.194;2023-03-01T06:55:43;-0.10;99.90
1391;DHT22;690;51.454;7.194;2023-03-01T06:58:10;0.00;99.90
1391;DHT22;690;51.454;7.194;2023-03-01T07:00:38;0.00;99.90
1391;DHT22;690;51.454;7.194;2023-03-01T07:03:06;0.00;99.90
1391;DHT22;690;51.454;7.194;2023-03-01T07:05:33;0.00;99.90
1391;DHT22;690;51.454;7.194;2023-03-01T07:08:00;0.00;99.90
1391;DHT22;690;51.454;7.194;2023-03-01T07:10:27;0.10;99.90
1391;DHT22;690;51.454;7.194;2023-03-01T07:12:55;0.10;99.90
1391;DHT22;690;51.454;7.194;2023-03-01T07:15:22;0.20;99.90
1391;DHT22;690;51.454;7.194;2023-03-01T07:17:50;0.20;1.00
1391;DHT22;690;51.454;7.194;2023-03-01T07:20:18;0.30;1.00
1391;DHT22;690;51.454;7.194;2023-03-01T07:22:48;0.40;1.00
1391;DHT22;690;51.454;7.194;2023-03-01T07:25:14;0.40;1.00
1391;DHT22;690;51.454;7.194;2023-03-01T07:27:41;0.40;1.00
1391;DHT22;690;51.454;7.194;2023-03-01T07:30:09;0.50;1.00
1391;DHT22;690;51.454;7.194;2023-03-01T07:32:36;0.60;1.00
1391;DHT22;690;51.454;7.194;2023-03-01T07:35:05;0.60;1.00
1391;DHT22;690;51.454;7.194;2023-03-01T07:37:32;0.70;1.00
1391;DHT22;690;51.454;7.194;2023-03-01T07:39:59;0.80;1.00
1391;DHT22;690;51.454;7.194;2023-03-01T07:42:26;0.80;1.00
1391;DHT22;690;51.454;7.194;2023-03-01T07:44:53;0.90;1.00
1391;DHT22;690;51.454;7.194;2023-03-01T07:47:20;0.90;1.00
1391;DHT22;690;51.454;7.194;2023-03-01T07:49:46;1.00;1.00
1391;DHT22;690;51.454;7.194;2023-03-01T07:52:15;1.00;1.00
1391;DHT22;690;51.454;7.194;2023-03-01T07:54:43;1.10;1.00
1391;DHT22;690;51.454;7.194;2023-03-01T07:57:10;1.20;1.00
1391;DHT22;690;51.454;7.194;2023-03-01T07:59:37;1.20;1.00
1391;DHT22;690;51.454;7.194;2023-03-01T08:02:04;1.30;1.00
1391;DHT22;690;51.454;7.194;2023-03-01T08:04:31;1.30;1.00
1391;DHT22;690;51.454;7.194;2023-03-01T08:06:59;1.40;1.00
1391;DHT22;690;51.454;7.194;2023-03-01T08:09:27;1.50;1.00
1391;DHT22;690;51.454;7.194;2023-03-01T08:11:55;1.60;1.00
1391;DHT22;690;51.454;7.194;2023-03-01T08:14:22;1.60;1.00
1391;DHT22;690;51.454;7.194;2023-03-01T08:16:49;1.70;1.00
1391;DHT22;690;51.454;7.194;2023-03-01T08:19:16;1.80;1.00
1391;DHT22;690;51.454;7.194;2023-03-01T08:21:43;1.90;1.00
1391;DHT22;690;51.454;7.194;2023-03-01T08:24:10;2.00;1.00
1391;DHT22;690;51.454;7.194;2023-03-01T08:26:38;2.00;1.00
1391;DHT22;690;51.454;7.194;2023-03-01T08:29:05;2.10;99.90
1391;DHT22;690;51.454;7.194;2023-03-01T08:31:34;2.20;99.90
1391;DHT22;690;51.454;7.194;2023-03-01T08:34:04;2.20;99.90
1391;DHT22;690;51.454;7.194;2023-03-01T08:36:33;2.30;99.90
1391;DHT22;690;51.454;7.194;2023-03-01T08:39:01;2.30;99.90
1391;DHT22;690;51.454;7.194;2023-03-01T08:41:28;2.40;99.90
1391;DHT22;690;51.454;7.194;2023-03-01T08:43:56;2.40;99.90
1391;DHT22;690;51.454;7.194;2023-03-01T08:46:25;2.50;99.90
1391;DHT22;690;51.454;7.194;2023-03-01T08:48:52;2.60;99.90
1391;DHT22;690;51.454;7.194;2023-03-01T08:51:20;2.70;99.90
1391;DHT22;690;51.454;7.194;2023-03-01T08:53:47;2.70;99.90
1391;DHT22;690;51.454;7.194;2023-03-01T08:56:15;2.80;99.90
1391;DHT22;690;51.454;7.194;2023-03-01T08:58:44;2.80;99.90
1391;DHT22;690;51.454;7.194;2023-03-01T09:01:14;2.90;99.90
1391;DHT22;690;51.454;7.194;2023-03-01T09:03:42;3.00;99.90
1391;DHT22;690;51.454;7.194;2023-03-01T09:06:09;3.00;99.90
1391;DHT22;690;51.454;7.194;2023-03-01T09:08:36;3.10;99.90
1391;DHT22;690;51.454;7.194;2023-03-01T09:11:04;3.30;99.90
1391;DHT22;690;51.454;7.194;2023-03-01T09:13:32;3.60;99.90
1391;DHT22;690;51.454;7.194;2023-03-01T09:16:00;4.00;99.90
1391;DHT22;690;51.454;7.194;2023-03-01T09:18:28;4.50;99.90
1391;DHT22;690;51.454;7.194;2023-03-01T09:21:01;4.80;99.90
1391;DHT22;690;51.454;7.194;2023-03-01T09:23:27;5.10;99.90
1391;DHT22;690;51.454;7.194;2023-03-01T09:25:54;5.30;99.90
1391;DHT22;690;51.454;7.194;2023-03-01T09:28:21;5.50;99.90
1391;DHT22;690;51.454;7.194;2023-03-01T09:30:48;5.70;99.90
1391;DHT22;690;51.454;7.194;2023-03-01T09:33:15;5.90;99.90
1391;DHT22;690;51.454;7.194;2023-03-01T09:35:43;6.00;99.90
1391;DHT22;690;51.454;7.194;2023-03-01T09:38:12;6.20;99.90
1391;DHT22;690;51.454;7.194;2023-03-01T09:40:42;6.40;99.90
1391;DHT22;690;51.454;7.194;2023-03-01T09:43:15;6.50;99.90
1391;DHT22;690;51.454;7.194;2023-03-01T09:45:46;6.60;99.90
1391;DHT22;690;51.454;7.194;2023-03-01T09:48:17;6.60;99.90
1391;DHT22;690;51.454;7.194;2023-03-01T09:50:49;6.70;99.90
1391;DHT22;690;51.454;7.194;2023-03-01T09:53:18;6.80;99.90
1391;DHT22;690;51.454;7.194;2023-03-01T09:55:48;6.90;99.90
1391;DHT22;690;51.454;7.194;2023-03-01T10:01:30;7.00;99.90
1391;DHT22;690;51.454;7.194;2023-03-01T10:04:21;6.90;99.90
1391;DHT22;690;51.454;7.194;2023-03-01T10:07:00;6.70;99.90
1391;DHT22;690;51.454;7.194;2023-03-01T10:09:33;6.50;99.90
1391;DHT22;690;51.454;7.194;2023-03-01T10:12:01;6.30;99.90
1391;DHT22;690;51.454;7.194;2023-03-01T10:14:34;6.20;99.90
1391;DHT22;690;51.454;7.194;2023-03-01T10:17:04;6.10;99.90
1391;DHT22;690;51.454;7.194;2023-03-01T10:19:33;6.10;99.90
1391;DHT22;690;51.454;7.194;2023-03-01T10:22:12;6.10;99.90
1391;DHT22;690;51.454;7.194;2023-03-01T10:24:40;6.10;99.90
1391;DHT22;690;51.454;7.194;2023-03-01T10:27:11;6.00;99.90
1391;DHT22;690;51.454;7.194;2023-03-01T10:29:44;6.00;99.90
1391;DHT22;690;51.454;7.194;2023-03-01T10:32:12;6.00;99.90
1391;DHT22;690;51.454;7.194;2023-03-01T10:34:39;6.00;99.90
1391;DHT22;690;51.454;7.194;2023-03-01T10:37:13;6.00;99.90
1391;DHT22;690;51.454;7.194;2023-03-01T10:39:59;6.00;99.90
1391;DHT22;690;51.454;7.194;2023-03-01T10:42:32;6.10;99.90
1391;DHT22;690;51.454;7.194;2023-03-01T10:45:17;6.10;99.90
1391;DHT22;690;51.454;7.194;2023-03-01T10:48:03;6.10;99.90
1391;DHT22;690;51.454;7.194;2023-03-01T10:50:30;6.10;99.90
1391;DHT22;690;51.454;7.194;2023-03-01T10:53:00;6.20;99.90
1391;DHT22;690;51.454;7.194;2023-03-01T10:55:31;6.20;99.90
1391;DHT22;690;51.454;7.194;2023-03-01T10:58:16;6.30;99.90
1391;DHT22;690;51.454;7.194;2023-03-01T11:00:49;6.20;99.90
1391;DHT22;690;51.454;7.194;2023-03-01T11:03:21;6.20;99.90
1391;DHT22;690;51.454;7.194;2023-03-01T11:05:54;6.20;99.90
1391;DHT22;690;51.454;7.194;2023-03-01T11:08:44;6.20;99.90
1391;DHT22;690;51.454;7.194;2023-03-01T11:11:25;6.30;99.90
1391;DHT22;690;51.454;7.194;2023-03-01T11:13:58;6.40;99.90
1391;DHT22;690;51.454;7.194;2023-03-01T11:16:29;6.50;99.90
1391;DHT22;690;51.454;7.194;2023-03-01T11:19:00;6.60;99.90
1391;DHT22;690;51.454;7.194;2023-03-01T11:21:29;6.70;99.90
1391;DHT22;690;51.454;7.194;2023-03-01T11:24:00;6.80;99.90
1391;DHT22;690;51.454;7.194;2023-03-01T11:26:28;6.80;99.90
1391;DHT22;690;51.454;7.194;2023-03-01T11:29:04;6.90;99.90
1391;DHT22;690;51.454;7.194;2023-03-01T11:31:33;6.90;99.90
1391;DHT22;690;51.454;7.194;2023-03-01T11:34:06;7.00;99.90
1391;DHT22;690;51.454;7.194;2023-03-01T11:36:36;7.00;99.90
1391;DHT22;690;51.454;7.194;2023-03-01T11:39:25;7.10;99.90
1391;DHT22;690;51.454;7.194;2023-03-01T11:42:02;7.20;99.90
1391;DHT22;690;51.454;7.194;2023-03-01T11:44:33;7.30;99.90
1391;DHT22;690;51.454;7.194;2023-03-01T11:47:15;7.30;99.90
1391;DHT22;690;51.454;7.194;2023-03-01T11:50:16;7.30;99.90
1391;DHT22;690;51.454;7.194;2023-03-01T11:52:53;7.30;99.90
1391;DHT22;690;51.454;7.194;2023-03-01T11:55:36;7.30;99.90
1391;DHT22;690;51.454;7.194;2023-03-01T11:58:27;7.30;99.90
1391;DHT22;690;51.454;7.194;2023-03-01T12:01:05;7.40;99.90
1391;DHT22;690;51.454;7.194;2023-03-01T12:03:47;7.50;99.90
1391;DHT22;690;51.454;7.194;2023-03-01T12:06:38;7.60;99.90
1391;DHT22;690;51.454;7.194;2023-03-01T12:09:21;7.80;99.90
1391;DHT22;690;51.454;7.194;2023-03-01T12:12:06;7.90;99.90
1391;DHT22;690;51.454;7.194;2023-03-01T12:15:00;7.90;99.90
1391;DHT22;690;51.454;7.194;2023-03-01T12:17:40;8.00;99.90
1391;DHT22;690;51.454;7.194;2023-03-01T12:20:22;8.00;99.90
1391;DHT22;690;51.454;7.194;2023-03-01T12:23:12;8.00;99.90
1391;DHT22;690;51.454;7.194;2023-03-01T12:25:46;8.10;99.90
1391;DHT22;690;51.454;7.194;2023-03-01T12:31:33;8.20;99.90
1391;DHT22;690;51.454;7.194;2023-03-01T12:34:11;8.40;99.90
1391;DHT22;690;51.454;7.194;2023-03-01T12:36:53;8.50;99.90
1391;DHT22;690;51.454;7.194;2023-03-01T12:39:36;8.60;99.90
1391;DHT22;690;51.454;7.194;2023-03-01T12:42:15;8.70;99.90
1391;DHT22;690;51.454;7.194;2023-03-01T12:45:00;8.70;99.90
1391;DHT22;690;51.454;7.194;2023-03-01T12:47:40;8.70;99.90
1391;DHT22;690;51.454;7.194;2023-03-01T12:50:14;8.70;99.90
1391;DHT22;690;51.454;7.194;2023-03-01T12:52:47;8.70;99.90
1391;DHT22;690;51.454;7.194;2023-03-01T12:55:25;8.80;99.90
1391;DHT22;690;51.454;7.194;2023-03-01T12:58:00;8.90;99.90
1391;DHT22;690;51.454;7.194;2023-03-01T13:00:35;9.00;99.90
1391;DHT22;690;51.454;7.194;2023-03-01T13:03:12;9.00;99.90
1391;DHT22;690;51.454;7.194;2023-03-01T13:06:04;9.00;99.90
1391;DHT22;690;51.454;7.194;2023-03-01T13:08:40;9.00;99.90
1391;DHT22;690;51.454;7.194;2023-03-01T13:11:15;9.10;99.90
1391;DHT22;690;51.454;7.194;2023-03-01T13:13:42;9.00;99.90
1391;DHT22;690;51.454;7.194;2023-03-01T13:16:39;9.10;99.90
1391;DHT22;690;51.454;7.194;2023-03-01T13:19:12;9.20;99.90
1391;DHT22;690;51.454;7.194;2023-03-01T13:21:40;9.30;99.90
1391;DHT22;690;51.454;7.194;2023-03-01T13:24:33;9.30;99.90
1391;DHT22;690;51.454;7.194;2023-03-01T13:27:26;9.40;99.90
1391;DHT22;690;51.454;7.194;2023-03-01T13:29:56;9.60;99.90
1391;DHT22;690;51.454;7.194;2023-03-01T13:32:28;9.60;99.90
1391;DHT22;690;51.454;7.194;2023-03-01T13:35:01;9.60;99.90
1391;DHT22;690;51.454;7.194;2023-03-01T13:37:33;9.60;99.90
1391;DHT22;690;51.454;7.194;2023-03-01T13:42:45;9.70;99.90
1391;DHT22;690;51.454;7.194;2023-03-01T13:45:25;9.70;99.90
1391;DHT22;690;51.454;7.194;2023-03-01T13:48:02;9.80;99.90
1391;DHT22;690;51.454;7.194;2023-03-01T13:50:36;9.90;99.90
1391;DHT22;690;51.454;7.194;2023-03-01T13:53:05;10.00;99.90
1391;DHT22;690;51.454;7.194;2023-03-01T13:55:38;10.00;99.90
1391;DHT22;690;51.454;7.194;2023-03-01T13:58:18;10.00;99.90
1391;DHT22;690;51.454;7.194;2023-03-01T14:00:46;10.10;99.90
1391;DHT22;690;51.454;7.194;2023-03-01T14:03:15;10.10;99.90
1391;DHT22;690;51.454;7.194;2023-03-01T14:05:53;10.10;99.90
1391;DHT22;690;51.454;7.194;2023-03-01T14:08:24;10.20;99.90
1391;DHT22;690;51.454;7.194;2023-03-01T14:11:13;10.00;99.90
1391;DHT22;690;51.454;7.194;2023-03-01T14:14:10;9.90;99.90
1391;DHT22;690;51.454;7.194;2023-03-01T14:16:47;9.90;99.90
1391;DHT22;690;51.454;7.194;2023-03-01T14:19:20;9.90;99.90
1391;DHT22;690;51.454;7.194;2023-03-01T14:21:59;9.90;99.90
1391;DHT22;690;51.454;7.194;2023-03-01T14:24:27;9.90;99.90
1391;DHT22;690;51.454;7.194;2023-03-01T14:26:55;9.90;99.90
1391;DHT22;690;51.454;7.194;2023-03-01T14:29:27;9.90;99.90
1391;DHT22;690;51.454;7.194;2023-03-01T14:31:54;9.90;99.90
1391;DHT22;690;51.454;7.194;2023-03-01T14:34:24;9.90;99.90
1391;DHT22;690;51.454;7.194;2023-03-01T14:36:51;9.90;99.90
1391;DHT22;690;51.454;7.194;2023-03-01T14:39:20;10.00;99.90
1391;DHT22;690;51.454;7.194;2023-03-01T14:41:51;10.10;99.90
1391;DHT22;690;51.454;7.194;2023-03-01T14:44:21;10.00;99.90
1391;DHT22;690;51.454;7.194;2023-03-01T14:46:53;10.00;99.90
1391;DHT22;690;51.454;7.194;2023-03-01T14:49:24;10.00;99.90
1391;DHT22;690;51.454;7.194;2023-03-01T14:51:54;9.90;99.90
1391;DHT22;690;51.454;7.194;2023-03-01T14:54:26;9.90;99.90
1391;DHT22;690;51.454;7.194;2023-03-01T14:56:57;9.90;99.90
1391;DHT22;690;51.454;7.194;2023-03-01T14:59:24;9.80;99.90
1391;DHT22;690;51.454;7.194;2023-03-01T15:01:53;9.80;99.90
1391;DHT22;690;51.454;7.194;2023-03-01T15:04:21;9.90;99.90
1391;DHT22;690;51.454;7.194;2023-03-01T15:06:52;9.90;99.90
1391;DHT22;690;51.454;7.194;2023-03-01T15:09:19;10.00;99.90
1391;DHT22;690;51.454;7.194;2023-03-01T15:11:49;10.00;99.90
1391;DHT22;690;51.454;7.194;2023-03-01T15:14:27;10.00;99.90
1391;DHT22;690;51.454;7.194;2023-03-01T15:16:54;10.10;99.90
1391;DHT22;690;51.454;7.194;2023-03-01T15:19:23;10.10;99.90
1391;DHT22;690;51.454;7.194;2023-03-01T15:21:54;10.20;99.90
1391;DHT22;690;51.454;7.194;2023-03-01T15:24:24;10.20;99.90
1391;DHT22;690;51.454;7.194;2023-03-01T15:26:55;10.20;99.90
1391;DHT22;690;51.454;7.194;2023-03-01T15:29:25;10.10;99.90
1391;DHT22;690;51.454;7.194;2023-03-01T15:31:57;9.90;99.90
1391;DHT22;690;51.454;7.194;2023-03-01T15:34:25;9.90;99.90
1391;DHT22;690;51.454;7.194;2023-03-01T15:36:56;9.90;99.90
1391;DHT22;690;51.454;7.194;2023-03-01T15:39:35;9.90;99.90
1391;DHT22;690;51.454;7.194;2023-03-01T15:42:05;9.90;99.90
1391;DHT22;690;51.454;7.194;2023-03-01T15:44:34;9.90;99.90
1391;DHT22;690;51.454;7.194;2023-03-01T15:47:02;9.90;99.90
1391;DHT22;690;51.454;7.194;2023-03-01T15:49:37;9.90;99.90
1391;DHT22;690;51.454;7.194;2023-03-01T15:52:17;9.90;99.90
1391;DHT22;690;51.454;7.194;2023-03-01T15:54:45;9.90;99.90
1391;DHT22;690;51.454;7.194;2023-03-01T15:57:13;9.90;99.90
1391;DHT22;690;51.454;7.194;2023-03-01T15:59:40;9.90;99.90
1391;DHT22;690;51.454;7.194;2023-03-01T16:02:09;9.90;99.90
1391;DHT22;690;51.454;7.194;2023-03-01T16:04:36;9.80;99.90
1391;DHT22;690;51.454;7.194;2023-03-01T16:07:03;9.80;99.90
1391;DHT22;690;51.454;7.194;2023-03-01T16:09:31;9.80;99.90
1391;DHT22;690;51.454;7.194;2023-03-01T16:11:58;9.80;99.90
1391;DHT22;690;51.454;7.194;2023-03-01T16:14:25;9.70;99.90
1391;DHT22;690;51.454;7.194;2023-03-01T16:16:52;9.70;99.90
1391;DHT22;690;51.454;7.194;2023-03-01T16:19:19;9.80;99.90
1391;DHT22;690;51.454;7.194;2023-03-01T16:21:46;9.80;99.90
1391;DHT22;690;51.454;7.194;2023-03-01T16:24:15;9.90;99.90
1391;DHT22;690;51.454;7.194;2023-03-01T16:26:44;9.90;99.90
1391;DHT22;690;51.454;7.194;2023-03-01T16:29:10;9.80;99.90
1391;DHT22;690;51.454;7.194;2023-03-01T16:31:37;9.70;99.90
1391;DHT22;690;51.454;7.194;2023-03-01T16:34:04;9.60;99.90
1391;DHT22;690;51.454;7.194;2023-03-01T16:36:31;9.50;99.90
1391;DHT22;690;51.454;7.194;2023-03-01T16:38:59;9.30;99.90
1391;DHT22;690;51.454;7.194;2023-03-01T16:41:26;9.20;99.90
1391;DHT22;690;51.454;7.194;2023-03-01T16:43:55;9.10;99.90
1391;DHT22;690;51.454;7.194;2023-03-01T16:46:23;9.10;99.90
1391;DHT22;690;51.454;7.194;2023-03-01T16:48:51;9.00;99.90
1391;DHT22;690;51.454;7.194;2023-03-01T16:51:19;8.90;99.90
1391;DHT22;690;51.454;7.194;2023-03-01T16:53:46;8.80;99.90
1391;DHT22;690;51.454;7.194;2023-03-01T16:56:13;8.70;99.90
1391;DHT22;690;51.454;7.194;2023-03-01T16:58:41;8.70;99.90
1391;DHT22;690;51.454;7.194;2023-03-01T17:01:11;8.60;99.90
1391;DHT22;690;51.454;7.194;2023-03-01T17:03:38;8.60;99.90
1391;DHT22;690;51.454;7.194;2023-03-01T17:06:07;8.50;99.90